21:15
Airports
History
Links
Donate
Help keep this website running!
PayPal
Bitcoin
This page is community maintained. The information is intended for PC simulator navigation or reference.
Always use approved charts for navigation.
VOHY
HYDERABAD
HYDERABAD (VOHY)
Hyderabad, Andhra Pradesh, India (500016)
(C)
Lat/Lng:17° 27' 11.71" N / 78° 28' 8.73" E
17.453253 / 78.469092
Elevation:1742'ft / 531mMSL
ID / ICAO:VOHY
Runways:1
Longest:09-27
Asphalt 3,219m / 10,560ft
Controlled:Yes
METAR16:00 GMT 2017-11-19
Altimeter: 30.03
Visibility: 3.1 statute miles
Wind: 0 knots (from 000°)
Temp: 25°c / 77°f
Humidity: 73.8%

METAR: VOHY 191600Z 00000KT 5000 HZ SCT015 BKN100 25/20 Q1017 NOSIG

(Powered by phpweather)
Airport Radio Frequencies
ATIS: 126.8
Tower: 122.25
Approach: 132.4
Nearby VORs <50NM
Nearby NDBs
Runway 09 / 27
Dimensions:3218.7 x 45.1m 10560' x 148'ft
Surface:Asphalt
Edge Lights:High intensity
Runway 09 [A]Runway 27 [B]
Heading:088°TH 268°TH
Lat:
Lng:
17° 27' 10.63"N
78° 27' 14.01"E
17° 27' 12.79"N
78° 29' 3.45"E
ALS:SALSALSF-I
User Notes and Comments
17° 27' 11.71" N / 78° 28' 8.73" E
Distance To
Airport ID:
Nearby Airports
(U) HAKIMPET 7.8 NM
VOHK NNE 26°
(C) DUNDIGUL 12.8 NM
VODG NNW 339°
(U) BIDAR 72.2 NM
VOBR WNW 295°
(U) NAGARJUNA SAGAR 84.3 NM
VONS SE 138°
(U) NANDER 141.3 NM
VO32 NNW 327°
(U) MUROD KOND 147.5 NM
VO55 WNW 296°
(C) VIJAYAWADA 166.5 NM
VOBZ ( WX ) ESE 112°
VFR Chart
Flight Planning at SkyVector.com